createdAt,value
2023-05-16T00:01:41.526Z,6.47
2023-05-16T00:04:08.889Z,7.57
2023-05-16T00:06:36.475Z,6.90
2023-05-16T00:09:03.938Z,6.90
2023-05-16T00:15:35.967Z,6.18
2023-05-16T00:18:03.297Z,6.68
2023-05-16T00:20:32.020Z,6.57
2023-05-16T00:23:01.374Z,6.15
2023-05-16T00:25:29.003Z,6.38
2023-05-16T00:27:56.237Z,6.63
2023-05-16T00:30:23.730Z,6.32
2023-05-16T00:32:52.426Z,6.05
2023-05-16T00:35:19.940Z,6.38
2023-05-16T00:37:47.253Z,5.25
2023-05-16T00:40:15.933Z,6.18
2023-05-16T00:42:43.268Z,6.05
2023-05-16T00:45:11.391Z,6.07
2023-05-16T00:47:38.603Z,6.30
2023-05-16T00:50:07.355Z,5.88
2023-05-16T00:52:36.198Z,5.75
2023-05-16T00:55:04.701Z,5.10
2023-05-16T00:57:33.330Z,4.90
2023-05-16T01:00:00.991Z,5.65
2023-05-16T01:02:29.330Z,5.53
2023-05-16T01:04:57.315Z,5.05
2023-05-16T01:07:24.493Z,4.85
2023-05-16T01:09:52.506Z,5.13
2023-05-16T01:12:56.872Z,4.85
2023-05-16T01:15:39.035Z,5.53
2023-05-16T01:20:48.369Z,5.15
2023-05-16T01:23:36.700Z,5.32
2023-05-16T01:26:27.191Z,5.68
2023-05-16T01:28:55.170Z,6.13
2023-05-16T01:31:24.023Z,5.05
2023-05-16T01:33:52.062Z,5.85
2023-05-16T01:36:50.571Z,6.20
2023-05-16T01:39:33.631Z,6.20
2023-05-16T01:42:07.272Z,7.75
2023-05-16T01:45:03.674Z,6.68
2023-05-16T01:47:33.381Z,6.07
2023-05-16T01:50:23.918Z,6.68
2023-05-16T01:53:06.840Z,7.95
2023-05-16T01:55:47.448Z,7.93
2023-05-16T01:58:16.505Z,7.50
2023-05-16T02:00:44.926Z,8.30
2023-05-16T02:03:12.916Z,7.22
2023-05-16T02:05:40.455Z,7.97
2023-05-16T02:08:09.835Z,6.90
2023-05-16T02:10:37.029Z,7.32
2023-05-16T02:13:04.486Z,7.20
2023-05-16T02:15:31.680Z,8.27
2023-05-16T02:18:00.095Z,7.40
2023-05-16T02:20:27.322Z,7.68
2023-05-16T02:22:54.894Z,7.85
2023-05-16T02:25:22.166Z,8.50
2023-05-16T02:27:49.708Z,8.02
2023-05-16T02:30:16.945Z,7.93
2023-05-16T02:32:49.181Z,8.75
2023-05-16T02:35:17.424Z,8.35
2023-05-16T02:37:44.863Z,7.75
2023-05-16T02:40:13.060Z,8.75
2023-05-16T02:42:40.545Z,8.65
2023-05-16T02:45:08.132Z,8.50
2023-05-16T02:47:35.748Z,8.63
2023-05-16T02:50:03.802Z,10.05
2023-05-16T02:52:31.360Z,10.52
2023-05-16T02:55:16.101Z,11.10
2023-05-16T02:57:46.116Z,11.43
2023-05-16T03:00:15.618Z,11.32
2023-05-16T03:02:44.997Z,12.70
2023-05-16T03:05:12.383Z,12.20
2023-05-16T03:07:41.328Z,12.27
2023-05-16T03:10:08.976Z,12.63
2023-05-16T03:12:36.430Z,11.73
2023-05-16T03:15:04.262Z,11.52
2023-05-16T03:17:31.932Z,11.90
2023-05-16T03:19:59.177Z,11.32
2023-05-16T03:22:26.668Z,11.35
2023-05-16T03:24:53.845Z,11.18
2023-05-16T03:27:23.567Z,10.32
2023-05-16T03:29:50.784Z,10.23
2023-05-16T03:32:18.340Z,9.95
2023-05-16T03:34:46.854Z,9.55
2023-05-16T03:37:16.106Z,6.47
2023-05-16T03:39:43.514Z,6.60
2023-05-16T03:42:11.058Z,5.13
2023-05-16T03:44:38.552Z,4.22
2023-05-16T03:47:06.477Z,4.15
2023-05-16T03:49:33.729Z,3.60
2023-05-16T03:52:01.903Z,2.90
2023-05-16T03:54:29.104Z,2.13
2023-05-16T03:56:56.583Z,1.83
2023-05-16T03:59:23.789Z,1.40
2023-05-16T04:01:51.319Z,1.23
2023-05-16T04:04:18.591Z,1.60
2023-05-16T04:06:46.021Z,1.35
2023-05-16T04:09:13.726Z,1.70
2023-05-16T04:11:41.176Z,1.38
2023-05-16T04:14:08.439Z,1.65
2023-05-16T04:16:36.099Z,1.52
2023-05-16T04:19:04.065Z,1.33
2023-05-16T04:21:31.943Z,1.90
2023-05-16T04:23:59.342Z,1.90
2023-05-16T04:26:27.640Z,1.65
2023-05-16T04:28:54.851Z,1.88
2023-05-16T04:31:23.250Z,1.70
2023-05-16T04:33:50.537Z,1.55
2023-05-16T04:36:17.997Z,1.50
2023-05-16T04:38:46.921Z,1.15
2023-05-16T04:41:14.636Z,1.10
2023-05-16T04:43:42.208Z,1.02
2023-05-16T04:46:10.237Z,0.80
2023-05-16T04:48:37.476Z,0.50
2023-05-16T04:51:05.128Z,0.70
2023-05-16T04:53:32.598Z,0.40
2023-05-16T04:56:00.966Z,0.50
2023-05-16T04:58:28.117Z,0.38
2023-05-16T05:00:55.975Z,0.45
2023-05-16T05:03:23.277Z,0.40
2023-05-16T05:05:51.860Z,0.70
2023-05-16T05:08:19.232Z,0.63
2023-05-16T05:10:46.681Z,0.63
2023-05-16T05:13:14.197Z,0.60
2023-05-16T05:15:41.646Z,0.50
2023-05-16T05:18:08.910Z,0.40
2023-05-16T05:20:36.449Z,0.35
2023-05-16T05:23:03.749Z,0.43
2023-05-16T05:25:31.234Z,0.82
2023-05-16T05:27:58.438Z,0.32
2023-05-16T05:30:25.928Z,0.57
2023-05-16T05:32:54.945Z,0.45
2023-05-16T05:35:22.461Z,0.82
2023-05-16T05:37:49.596Z,0.77
2023-05-16T05:40:17.031Z,0.90
2023-05-16T05:42:46.782Z,0.95
2023-05-16T05:45:16.156Z,1.05
2023-05-16T05:47:44.107Z,0.95
2023-05-16T05:50:12.054Z,1.02
2023-05-16T05:52:39.275Z,1.42
2023-05-16T05:55:07.114Z,1.25
2023-05-16T05:57:34.312Z,1.08
2023-05-16T06:00:02.126Z,1.70
2023-05-16T06:02:35.412Z,1.30
2023-05-16T06:05:03.174Z,1.60
2023-05-16T06:07:31.330Z,1.75
2023-05-16T06:09:59.638Z,1.50
2023-05-16T06:12:26.818Z,1.40
2023-05-16T06:14:54.250Z,1.20
2023-05-16T06:17:21.506Z,1.10
2023-05-16T06:19:49.035Z,1.00
2023-05-16T06:22:16.236Z,1.13
2023-05-16T06:24:43.753Z,1.40
2023-05-16T06:27:10.900Z,1.15
2023-05-16T06:29:38.717Z,1.08
2023-05-16T06:32:06.395Z,0.95
2023-05-16T06:34:33.914Z,0.88
2023-05-16T06:37:03.758Z,0.90
2023-05-16T06:39:31.274Z,1.10
2023-05-16T06:41:58.517Z,1.13
2023-05-16T06:44:26.127Z,1.20
2023-05-16T06:46:53.506Z,2.05
2023-05-16T06:49:21.461Z,1.60
2023-05-16T06:51:48.671Z,1.20
2023-05-16T06:54:16.362Z,1.42
2023-05-16T06:56:43.666Z,0.95
2023-05-16T06:59:11.228Z,1.30
2023-05-16T07:01:38.494Z,1.20
2023-05-16T07:04:06.546Z,1.20
2023-05-16T07:06:34.079Z,1.15
2023-05-16T07:09:02.383Z,1.13
2023-05-16T07:11:29.599Z,1.48
2023-05-16T07:13:57.142Z,0.85
2023-05-16T07:16:24.534Z,0.70
2023-05-16T07:18:52.569Z,0.68
2023-05-16T07:21:20.190Z,0.30
2023-05-16T07:23:48.055Z,0.30
2023-05-16T07:26:15.581Z,0.55
2023-05-16T07:28:43.098Z,0.40
2023-05-16T07:31:10.576Z,0.28
2023-05-16T07:33:38.158Z,0.63
2023-05-16T07:36:15.958Z,0.35
2023-05-16T07:38:45.391Z,0.52
2023-05-16T07:41:12.673Z,0.60
2023-05-16T07:43:40.211Z,0.90
2023-05-16T07:46:07.463Z,0.60
2023-05-16T07:48:35.044Z,0.68
2023-05-16T07:51:02.257Z,1.38
2023-05-16T07:53:29.762Z,1.20
2023-05-16T07:55:57.156Z,1.88
2023-05-16T07:58:24.778Z,2.20
2023-05-16T08:00:52.018Z,3.13
2023-05-16T08:03:19.780Z,3.58
2023-05-16T08:05:48.984Z,3.80
2023-05-16T08:08:16.568Z,3.10
2023-05-16T08:10:43.889Z,3.15
2023-05-16T08:13:11.511Z,3.33
2023-05-16T08:15:38.797Z,2.75
2023-05-16T08:18:14.367Z,2.60
2023-05-16T08:20:42.366Z,2.75
2023-05-16T08:23:10.011Z,3.10
2023-05-16T08:25:37.401Z,2.53
2023-05-16T08:28:04.998Z,3.45
2023-05-16T08:30:32.357Z,3.38
2023-05-16T08:32:59.921Z,2.63
2023-05-16T08:35:27.394Z,2.97
2023-05-16T08:37:55.173Z,2.38
2023-05-16T08:40:26.594Z,2.60
2023-05-16T08:45:23.672Z,2.00
2023-05-16T08:47:55.186Z,1.85
2023-05-16T08:50:23.015Z,2.20
2023-05-16T08:52:53.101Z,2.00
2023-05-16T08:55:22.333Z,2.40
2023-05-16T08:57:52.069Z,3.28
2023-05-16T09:00:19.895Z,1.60
2023-05-16T09:02:47.613Z,2.05
2023-05-16T09:05:16.424Z,1.80
2023-05-16T09:07:44.734Z,2.30
2023-05-16T09:10:13.141Z,1.80
2023-05-16T09:12:42.209Z,1.67
2023-05-16T09:15:11.350Z,1.70
2023-05-16T09:17:44.496Z,1.10
2023-05-16T09:20:17.456Z,1.50
2023-05-16T09:22:56.285Z,1.30
2023-05-16T09:25:30.393Z,1.02
2023-05-16T09:28:02.722Z,0.93
2023-05-16T09:30:33.832Z,1.10
2023-05-16T09:33:02.012Z,1.30
2023-05-16T09:37:59.974Z,1.02
2023-05-16T09:40:27.154Z,0.90
2023-05-16T09:43:02.318Z,0.90
2023-05-16T09:45:31.072Z,0.90
2023-05-16T09:48:10.397Z,1.00
2023-05-16T09:50:38.035Z,1.38
2023-05-16T09:53:05.963Z,0.88
2023-05-16T09:55:33.737Z,1.20
2023-05-16T09:58:01.354Z,1.00
2023-05-16T10:00:33.375Z,1.10
2023-05-16T10:03:05.861Z,1.35
2023-05-16T10:05:34.925Z,1.25
2023-05-16T10:08:03.614Z,1.52
2023-05-16T10:10:33.008Z,1.80
2023-05-16T10:13:03.547Z,1.90
2023-05-16T10:15:31.197Z,1.88
2023-05-16T10:18:00.718Z,1.30
2023-05-16T10:20:28.313Z,1.60
2023-05-16T10:22:56.931Z,1.58
2023-05-16T10:25:41.460Z,2.00
2023-05-16T10:28:09.657Z,2.05
2023-05-16T10:30:40.590Z,1.40
2023-05-16T10:33:09.402Z,1.30
2023-05-16T10:35:37.246Z,1.63
2023-05-16T10:38:08.179Z,1.70
2023-05-16T10:40:37.647Z,2.03
2023-05-16T10:43:07.850Z,1.35
2023-05-16T10:45:39.966Z,1.90
2023-05-16T10:48:10.950Z,2.00
2023-05-16T10:50:44.011Z,2.45
2023-05-16T10:53:22.749Z,2.20
2023-05-16T10:55:59.203Z,2.60
2023-05-16T10:58:39.091Z,2.28
2023-05-16T11:01:24.948Z,2.45
2023-05-16T11:04:04.842Z,2.58
2023-05-16T11:06:45.546Z,2.67
2023-05-16T11:09:16.084Z,2.83
2023-05-16T11:11:52.816Z,2.90
2023-05-16T11:14:32.910Z,2.50
2023-05-16T11:17:09.452Z,3.28
2023-05-16T11:19:59.799Z,3.80
2023-05-16T11:22:29.973Z,3.40
2023-05-16T11:25:08.984Z,3.50
2023-05-16T11:27:47.142Z,3.28
2023-05-16T11:30:17.780Z,3.53
2023-05-16T11:32:46.501Z,3.70
2023-05-16T11:35:18.483Z,4.20
2023-05-16T11:37:47.151Z,4.05
2023-05-16T11:40:17.412Z,4.65
2023-05-16T11:42:48.463Z,4.63
2023-05-16T11:45:22.456Z,5.03
2023-05-16T11:47:50.151Z,6.28
2023-05-16T11:50:26.789Z,6.38
2023-05-16T11:52:56.395Z,6.68
2023-05-16T11:55:40.391Z,6.80
2023-05-16T11:58:10.332Z,7.63
2023-05-16T12:00:48.554Z,8.45
2023-05-16T12:03:16.158Z,6.60
2023-05-16T12:05:54.790Z,7.82
2023-05-16T12:08:22.728Z,8.25
2023-05-16T12:10:51.910Z,8.15
2023-05-16T12:13:21.131Z,8.32
2023-05-16T12:15:49.012Z,7.32
2023-05-16T12:18:17.380Z,8.45
2023-05-16T12:20:45.465Z,8.93
2023-05-16T12:23:14.021Z,8.23
2023-05-16T12:25:46.971Z,8.30
2023-05-16T12:28:15.192Z,7.60
2023-05-16T12:30:44.408Z,8.02
2023-05-16T12:33:16.390Z,8.45
2023-05-16T12:35:46.005Z,8.35
2023-05-16T12:38:15.296Z,7.35
2023-05-16T12:40:44.200Z,7.72
2023-05-16T12:43:20.289Z,7.47
2023-05-16T12:45:53.058Z,7.97
2023-05-16T12:48:22.699Z,7.47
2023-05-16T12:50:51.056Z,8.18
2023-05-16T12:53:19.433Z,8.27
2023-05-16T12:55:46.930Z,8.25
2023-05-16T12:58:14.617Z,8.35
2023-05-16T13:00:41.927Z,7.63
2023-05-16T13:03:09.638Z,8.50
2023-05-16T13:05:36.926Z,7.82
2023-05-16T13:08:04.768Z,8.50
2023-05-16T13:10:31.975Z,8.93
2023-05-16T13:13:00.333Z,8.65
2023-05-16T13:15:28.226Z,8.60
2023-05-16T13:17:56.406Z,8.77
2023-05-16T13:20:23.750Z,8.68
2023-05-16T13:22:51.309Z,8.40
2023-05-16T13:25:18.712Z,8.98
2023-05-16T13:27:46.488Z,8.95
2023-05-16T13:30:13.897Z,9.65
2023-05-16T13:32:42.533Z,9.88
2023-05-16T13:35:10.459Z,8.70
2023-05-16T13:37:38.061Z,9.63
2023-05-16T13:40:08.699Z,8.75
2023-05-16T13:42:39.815Z,8.82
2023-05-16T13:45:08.067Z,9.53
2023-05-16T13:47:36.622Z,8.63
2023-05-16T13:50:09.199Z,8.30
2023-05-16T13:52:38.347Z,9.13
2023-05-16T13:55:06.496Z,8.35
2023-05-16T13:57:34.424Z,8.68
2023-05-16T14:02:40.674Z,8.20
2023-05-16T14:05:09.662Z,8.68
2023-05-16T14:07:37.248Z,8.98
2023-05-16T14:10:06.955Z,8.60
2023-05-16T14:12:34.690Z,8.82
2023-05-16T14:15:02.209Z,8.68
2023-05-16T14:17:30.027Z,8.65
2023-05-16T14:19:57.455Z,8.45
2023-05-16T14:22:25.004Z,9.45
2023-05-16T14:24:52.249Z,8.55
2023-05-16T14:27:19.751Z,8.60
2023-05-16T14:29:48.957Z,9.32
2023-05-16T14:32:17.057Z,9.02
2023-05-16T14:34:44.633Z,9.00
2023-05-16T14:37:12.253Z,8.57
2023-05-16T14:39:39.491Z,8.25
2023-05-16T14:42:08.755Z,9.40
2023-05-16T14:44:36.342Z,8.27
2023-05-16T14:47:04.586Z,8.20
2023-05-16T14:49:32.366Z,8.65
2023-05-16T14:51:59.951Z,7.85
2023-05-16T14:54:27.266Z,8.35
2023-05-16T14:56:55.779Z,7.85
2023-05-16T14:59:22.992Z,7.80
2023-05-16T15:01:50.637Z,7.40
2023-05-16T15:04:17.922Z,7.65
2023-05-16T15:06:45.593Z,8.10
2023-05-16T15:09:13.637Z,7.75
2023-05-16T15:11:41.679Z,8.07
2023-05-16T15:14:08.912Z,8.05
2023-05-16T15:16:36.742Z,8.32
2023-05-16T15:19:04.061Z,8.15
2023-05-16T15:21:32.710Z,7.32
2023-05-16T15:23:59.984Z,6.88
2023-05-16T15:26:27.963Z,8.40
2023-05-16T15:28:55.799Z,11.05
2023-05-16T15:31:23.542Z,7.75
2023-05-16T15:33:51.227Z,8.00
2023-05-16T15:36:18.896Z,7.85
2023-05-16T15:38:47.571Z,7.30
2023-05-16T15:41:36.877Z,6.88
2023-05-16T15:44:03.222Z,6.82
2023-05-16T15:46:33.094Z,6.25
2023-05-16T15:49:00.956Z,6.55
2023-05-16T15:51:28.542Z,6.38
2023-05-16T15:53:55.762Z,5.50
2023-05-16T15:56:23.371Z,5.55
2023-05-16T15:58:50.909Z,5.55
2023-05-16T16:01:18.582Z,5.53
2023-05-16T16:03:46.581Z,5.53
2023-05-16T16:06:14.242Z,5.60
2023-05-16T16:08:41.441Z,5.75
2023-05-16T16:11:09.289Z,5.50
2023-05-16T16:13:36.942Z,5.57
2023-05-16T16:16:04.682Z,5.13
2023-05-16T16:18:32.057Z,4.97
2023-05-16T16:20:59.655Z,5.10
2023-05-16T16:23:26.927Z,5.35
2023-05-16T16:25:54.455Z,4.80
2023-05-16T16:28:22.584Z,4.50
2023-05-16T16:30:50.638Z,4.22
2023-05-16T16:33:18.038Z,5.60
2023-05-16T16:35:45.848Z,4.65
2023-05-16T16:38:13.077Z,4.15
2023-05-16T16:40:40.771Z,4.00
2023-05-16T16:43:08.051Z,3.85
2023-05-16T16:45:36.030Z,4.00
2023-05-16T16:48:03.404Z,3.85
2023-05-16T16:50:32.873Z,3.70
2023-05-16T16:53:02.038Z,4.20
2023-05-16T16:55:29.896Z,4.10
2023-05-16T16:57:57.702Z,4.00
2023-05-16T17:00:25.318Z,3.88
2023-05-16T17:02:52.707Z,4.25
2023-05-16T17:05:20.773Z,3.53
2023-05-16T17:07:48.047Z,4.32
2023-05-16T17:10:16.902Z,4.50
2023-05-16T17:12:49.337Z,4.53
2023-05-16T17:15:17.731Z,5.70
2023-05-16T17:17:49.418Z,3.72
2023-05-16T17:20:17.286Z,3.90
2023-05-16T17:22:44.924Z,3.38
2023-05-16T17:25:12.622Z,3.22
2023-05-16T17:27:40.995Z,3.30
2023-05-16T17:30:10.605Z,3.50
2023-05-16T17:32:38.018Z,3.67
2023-05-16T17:35:06.334Z,3.00
2023-05-16T17:37:33.801Z,2.35
2023-05-16T17:40:01.630Z,2.95
2023-05-16T17:42:28.909Z,2.67
2023-05-16T17:44:56.508Z,3.17
2023-05-16T17:47:24.475Z,2.28
2023-05-16T17:49:52.130Z,3.88
2023-05-16T17:52:20.259Z,2.80
2023-05-16T17:54:48.190Z,2.08
2023-05-16T17:57:15.500Z,3.10
2023-05-16T17:59:43.073Z,2.72
2023-05-16T18:02:10.347Z,2.20
2023-05-16T18:04:38.246Z,2.00
2023-05-16T18:07:05.572Z,2.47
2023-05-16T18:09:33.172Z,2.50
2023-05-16T18:12:01.429Z,2.60
2023-05-16T18:14:29.261Z,2.20
2023-05-16T18:16:56.491Z,1.73
2023-05-16T18:19:24.269Z,1.92
2023-05-16T18:21:51.986Z,2.22
2023-05-16T18:24:19.535Z,2.67
2023-05-16T18:26:48.518Z,1.85
2023-05-16T18:29:16.312Z,2.20
2023-05-16T18:31:44.350Z,1.98
2023-05-16T18:34:12.114Z,1.92
2023-05-16T18:36:39.469Z,4.10
2023-05-16T18:39:07.244Z,2.10
2023-05-16T18:41:34.571Z,1.83
2023-05-16T18:44:02.159Z,2.60
2023-05-16T18:46:29.374Z,1.60
2023-05-16T18:48:57.995Z,2.53
2023-05-16T18:51:25.400Z,1.85
2023-05-16T18:53:53.178Z,2.25
2023-05-16T18:56:21.914Z,1.90
2023-05-16T18:58:49.481Z,2.08
2023-05-16T19:01:17.023Z,1.88
2023-05-16T19:03:44.783Z,2.10
2023-05-16T19:06:12.139Z,1.50
2023-05-16T19:08:47.450Z,1.70
2023-05-16T19:11:17.635Z,2.15
2023-05-16T19:13:46.097Z,2.10
2023-05-16T19:16:13.431Z,1.77
2023-05-16T19:18:41.216Z,1.88
2023-05-16T19:21:08.798Z,2.22
2023-05-16T19:23:36.660Z,1.60
2023-05-16T19:26:04.626Z,1.67
2023-05-16T19:28:33.472Z,1.38
2023-05-16T19:31:00.910Z,2.15
2023-05-16T19:33:28.535Z,1.98
2023-05-16T19:35:58.717Z,1.75
2023-05-16T19:38:26.770Z,2.03
2023-05-16T19:40:54.701Z,2.55
2023-05-16T19:43:22.222Z,1.88
2023-05-16T19:45:49.818Z,2.78
2023-05-16T19:48:17.633Z,2.03
2023-05-16T19:50:45.085Z,1.65
2023-05-16T19:53:12.596Z,2.05
2023-05-16T19:55:39.987Z,2.00
2023-05-16T19:58:07.601Z,1.52
2023-05-16T20:00:34.800Z,2.20
2023-05-16T20:03:02.520Z,1.98
2023-05-16T20:05:30.234Z,6.15
2023-05-16T20:07:58.174Z,2.58
2023-05-16T20:10:25.509Z,2.45
2023-05-16T20:12:53.061Z,2.00
2023-05-16T20:15:20.272Z,2.60
2023-05-16T20:17:47.810Z,2.35
2023-05-16T20:20:15.102Z,2.70
2023-05-16T20:22:42.665Z,2.30
2023-05-16T20:25:11.431Z,2.10
2023-05-16T20:27:39.167Z,2.80
2023-05-16T20:30:07.587Z,2.45
2023-05-16T20:32:35.652Z,2.25
2023-05-16T20:35:04.843Z,1.90
2023-05-16T20:37:33.455Z,2.33
2023-05-16T20:40:00.772Z,2.97
2023-05-16T20:42:28.327Z,1.60
2023-05-16T20:44:55.663Z,1.90
2023-05-16T20:47:23.209Z,2.00
2023-05-16T20:49:50.599Z,2.15
2023-05-16T20:52:19.355Z,2.63
2023-05-16T20:54:47.736Z,2.30
2023-05-16T20:57:16.211Z,2.20
2023-05-16T20:59:43.449Z,2.10
2023-05-16T21:02:13.620Z,2.17
2023-05-16T21:04:41.033Z,2.22
2023-05-16T21:07:08.837Z,2.40
2023-05-16T21:09:37.899Z,2.67
2023-05-16T21:12:05.976Z,2.47
2023-05-16T21:14:33.182Z,2.38
2023-05-16T21:17:00.803Z,1.88
2023-05-16T21:19:30.248Z,2.15
2023-05-16T21:21:57.810Z,2.13
2023-05-16T21:24:25.029Z,2.28
2023-05-16T21:26:52.527Z,2.45
2023-05-16T21:29:19.725Z,2.15
2023-05-16T21:31:47.339Z,2.17
2023-05-16T21:34:14.654Z,1.70
2023-05-16T21:36:42.161Z,1.63
2023-05-16T21:39:09.852Z,2.30
2023-05-16T21:41:37.387Z,1.80
2023-05-16T21:44:04.836Z,2.05
2023-05-16T21:46:33.398Z,1.70
2023-05-16T21:49:00.730Z,2.10
2023-05-16T21:51:28.304Z,2.20
2023-05-16T21:53:55.532Z,2.10
2023-05-16T21:56:23.219Z,2.25
2023-05-16T21:58:50.424Z,2.38
2023-05-16T22:01:20.216Z,2.15
2023-05-16T22:03:47.674Z,1.95
2023-05-16T22:06:15.254Z,1.45
2023-05-16T22:08:42.551Z,2.03
2023-05-16T22:11:10.071Z,2.08
2023-05-16T22:13:37.416Z,2.65
2023-05-16T22:16:05.610Z,2.10
2023-05-16T22:18:33.725Z,2.08
2023-05-16T22:21:01.902Z,2.28
2023-05-16T22:23:29.344Z,2.10
2023-05-16T22:25:56.882Z,2.85
2023-05-16T22:28:24.248Z,2.30
2023-05-16T22:30:51.760Z,2.55
2023-05-16T22:33:19.079Z,2.30
2023-05-16T22:35:46.695Z,2.03
2023-05-16T22:38:13.916Z,2.67
2023-05-16T22:40:41.699Z,1.95
2023-05-16T22:43:09.023Z,2.33
2023-05-16T22:45:36.655Z,1.80
2023-05-16T22:48:04.203Z,2.25
2023-05-16T22:50:31.839Z,3.00
2023-05-16T22:52:59.063Z,2.50
2023-05-16T22:55:26.916Z,2.22
2023-05-16T22:57:57.252Z,3.15
2023-05-16T23:00:24.855Z,2.38
2023-05-16T23:02:52.866Z,2.45
2023-05-16T23:05:21.122Z,3.15
2023-05-16T23:07:48.389Z,2.10
2023-05-16T23:10:15.972Z,3.78
2023-05-16T23:12:43.199Z,2.47
2023-05-16T23:15:11.322Z,2.25
2023-05-16T23:17:38.717Z,2.67
2023-05-16T23:20:07.591Z,2.83
2023-05-16T23:22:34.880Z,2.88
2023-05-16T23:25:02.542Z,2.83
2023-05-16T23:27:29.750Z,2.90
2023-05-16T23:29:57.570Z,3.25
2023-05-16T23:32:24.968Z,3.15
2023-05-16T23:34:52.689Z,3.03
2023-05-16T23:37:19.941Z,2.88
2023-05-16T23:39:47.487Z,3.00
2023-05-16T23:42:14.795Z,3.92
2023-05-16T23:44:42.310Z,2.95
2023-05-16T23:47:09.553Z,2.80
2023-05-16T23:49:37.133Z,2.92
2023-05-16T23:52:06.055Z,3.08
2023-05-16T23:54:34.608Z,2.72
2023-05-16T23:57:02.597Z,3.67
2023-05-16T23:59:30.122Z,2.92
